createdAt,value
2022-08-19T00:00:00.443Z,21.80
2022-08-19T00:01:02.581Z,21.80
2022-08-19T00:02:08.241Z,21.70
2022-08-19T00:03:10.552Z,21.70
2022-08-19T00:04:17.277Z,21.70
2022-08-19T00:05:20.793Z,21.70
2022-08-19T00:06:23.998Z,21.70
2022-08-19T00:07:26.009Z,21.70
2022-08-19T00:08:29.268Z,21.70
2022-08-19T00:09:31.690Z,21.70
2022-08-19T00:10:35.727Z,21.60
2022-08-19T00:11:39.147Z,21.60
2022-08-19T00:12:46.801Z,21.60
2022-08-19T00:13:51.209Z,21.60
2022-08-19T00:14:55.290Z,21.70
2022-08-19T00:15:59.715Z,21.60
2022-08-19T00:17:03.876Z,21.60
2022-08-19T00:18:07.034Z,21.60
2022-08-19T00:19:09.897Z,21.60
2022-08-19T00:20:18.454Z,21.60
2022-08-19T00:21:22.372Z,21.60
2022-08-19T00:22:24.814Z,21.60
2022-08-19T00:23:28.518Z,21.60
2022-08-19T00:24:31.167Z,21.60
2022-08-19T00:25:34.474Z,21.60
2022-08-19T00:26:37.410Z,21.60
2022-08-19T00:27:40.926Z,21.60
2022-08-19T00:28:43.010Z,21.60
2022-08-19T00:29:46.192Z,21.60
2022-08-19T00:30:57.114Z,21.50
2022-08-19T00:32:02.820Z,21.50
2022-08-19T00:33:09.560Z,21.40
2022-08-19T00:34:16.148Z,21.50
2022-08-19T00:35:19.575Z,21.40
2022-08-19T00:36:22.706Z,21.40
2022-08-19T00:37:27.686Z,21.30
2022-08-19T00:38:37.311Z,21.30
2022-08-19T00:39:40.327Z,21.30
2022-08-19T00:40:54.582Z,21.30
2022-08-19T00:41:57.801Z,21.20
2022-08-19T00:43:00.802Z,21.20
2022-08-19T00:44:07.527Z,21.20
2022-08-19T00:45:14.325Z,21.10
2022-08-19T00:46:16.545Z,21.20
2022-08-19T00:47:20.446Z,21.20
2022-08-19T00:48:24.215Z,21.20
2022-08-19T00:49:32.135Z,21.10
2022-08-19T00:50:37.509Z,21.10
2022-08-19T00:51:59.258Z,21.10
2022-08-19T00:53:05.267Z,21.10
2022-08-19T00:54:09.844Z,21.10
2022-08-19T00:55:18.226Z,21.10
2022-08-19T00:56:21.464Z,21.00
2022-08-19T00:57:28.912Z,21.00
2022-08-19T00:58:34.922Z,21.00
2022-08-19T00:59:56.278Z,21.00
2022-08-19T01:01:05.429Z,21.00
2022-08-19T01:02:09.148Z,20.90
2022-08-19T01:03:16.657Z,20.90
2022-08-19T01:04:21.561Z,20.90
2022-08-19T01:05:28.415Z,20.90
2022-08-19T01:06:33.733Z,20.90
2022-08-19T01:07:39.858Z,20.90
2022-08-19T01:08:42.135Z,20.90
2022-08-19T01:09:45.843Z,20.90
2022-08-19T01:10:52.624Z,20.80
2022-08-19T01:11:56.069Z,20.80
2022-08-19T01:12:59.825Z,20.80
2022-08-19T01:14:04.639Z,20.70
2022-08-19T01:15:09.025Z,20.70
2022-08-19T01:16:13.974Z,20.70
2022-08-19T01:17:17.137Z,20.60
2022-08-19T01:18:21.706Z,20.60
2022-08-19T01:19:29.528Z,20.60
2022-08-19T01:20:34.629Z,20.50
2022-08-19T01:21:43.258Z,20.50
2022-08-19T01:22:52.033Z,20.40
2022-08-19T01:23:55.333Z,20.40
2022-08-19T01:24:59.319Z,20.40
2022-08-19T01:26:02.065Z,20.30
2022-08-19T01:27:07.031Z,20.30
2022-08-19T01:28:19.421Z,20.30
2022-08-19T01:29:42.390Z,20.20
2022-08-19T01:30:51.223Z,20.10
2022-08-19T01:31:54.688Z,20.00
2022-08-19T01:32:57.766Z,20.00
2022-08-19T01:34:02.202Z,19.90
2022-08-19T01:35:05.530Z,20.00
2022-08-19T01:36:11.874Z,19.90
2022-08-19T01:37:15.990Z,19.90
2022-08-19T01:38:32.556Z,19.90
2022-08-19T01:39:34.917Z,19.90
2022-08-19T01:40:41.337Z,19.90
2022-08-19T01:41:43.480Z,19.90
2022-08-19T01:42:46.937Z,19.90
2022-08-19T01:44:03.312Z,19.90
2022-08-19T01:45:12.997Z,19.90
2022-08-19T01:46:15.141Z,20.00
2022-08-19T01:47:18.063Z,19.90
2022-08-19T01:48:20.157Z,19.90
2022-08-19T01:49:26.133Z,19.80
2022-08-19T01:50:29.006Z,19.80
2022-08-19T01:51:39.584Z,19.80
2022-08-19T01:52:43.680Z,19.80
2022-08-19T01:53:51.124Z,19.80
2022-08-19T01:54:53.232Z,19.80
2022-08-19T01:55:56.648Z,19.80
2022-08-19T01:57:02.360Z,19.80
2022-08-19T01:58:08.006Z,19.80
2022-08-19T01:59:13.458Z,19.70
2022-08-19T02:00:18.852Z,19.70
2022-08-19T02:01:21.224Z,19.70
2022-08-19T02:02:24.835Z,19.80
2022-08-19T02:03:26.852Z,19.80
2022-08-19T02:04:29.852Z,19.80
2022-08-19T02:05:31.964Z,19.80
2022-08-19T02:06:35.071Z,19.80
2022-08-19T02:07:38.031Z,19.80
2022-08-19T02:08:46.961Z,19.80
2022-08-19T02:09:51.264Z,19.80
2022-08-19T02:10:54.605Z,19.80
2022-08-19T02:11:57.235Z,19.80
2022-08-19T02:13:00.322Z,19.80
2022-08-19T02:14:07.609Z,19.80
2022-08-19T02:15:11.835Z,19.80
2022-08-19T02:16:14.119Z,19.80
2022-08-19T02:17:17.096Z,19.80
2022-08-19T02:18:19.480Z,19.80
2022-08-19T02:19:22.595Z,19.80
2022-08-19T02:20:24.900Z,19.80
2022-08-19T02:21:28.204Z,19.80
2022-08-19T02:22:30.313Z,19.80
2022-08-19T02:23:33.702Z,19.80
2022-08-19T02:24:35.879Z,19.80
2022-08-19T02:25:43.477Z,19.80
2022-08-19T02:26:45.620Z,19.80
2022-08-19T02:27:48.698Z,19.90
2022-08-19T02:28:52.003Z,19.90
2022-08-19T02:29:55.487Z,19.90
2022-08-19T02:30:57.809Z,19.90
2022-08-19T02:32:00.899Z,19.90
2022-08-19T02:33:03.539Z,19.80
2022-08-19T02:34:06.540Z,19.80
2022-08-19T02:35:12.183Z,19.80
2022-08-19T02:36:20.603Z,19.80
2022-08-19T02:37:38.311Z,19.70
2022-08-19T02:38:40.992Z,19.80
2022-08-19T02:39:44.090Z,19.80
2022-08-19T02:40:53.344Z,19.80
2022-08-19T02:41:56.527Z,19.70
2022-08-19T02:42:58.534Z,19.70
2022-08-19T02:44:28.838Z,19.70
2022-08-19T02:45:28.367Z,19.80
2022-08-19T02:46:34.493Z,19.80
2022-08-19T02:47:36.843Z,19.80
2022-08-19T02:48:40.306Z,19.80
2022-08-19T02:49:42.731Z,19.80
2022-08-19T02:50:53.426Z,19.80
2022-08-19T02:51:55.893Z,19.80
2022-08-19T02:52:59.469Z,19.80
2022-08-19T02:54:02.793Z,19.80
2022-08-19T02:55:07.607Z,19.80
2022-08-19T02:56:11.054Z,19.80
2022-08-19T02:57:14.265Z,19.80
2022-08-19T02:58:16.687Z,19.80
2022-08-19T02:59:20.293Z,19.80
2022-08-19T03:00:25.082Z,19.80
2022-08-19T03:01:30.938Z,19.80
2022-08-19T03:02:33.248Z,19.80
2022-08-19T03:03:36.327Z,19.80
2022-08-19T03:04:38.397Z,19.80
2022-08-19T03:05:48.214Z,19.80
2022-08-19T03:07:10.437Z,19.80
2022-08-19T03:08:15.494Z,19.80
2022-08-19T03:09:18.874Z,19.80
2022-08-19T03:10:22.278Z,19.80
2022-08-19T03:11:28.570Z,19.80
2022-08-19T03:12:31.955Z,19.80
2022-08-19T03:13:34.207Z,19.80
2022-08-19T03:14:38.628Z,19.80
2022-08-19T03:15:42.792Z,19.90
2022-08-19T03:16:48.418Z,19.80
2022-08-19T03:17:50.601Z,19.80
2022-08-19T03:18:55.712Z,19.80
2022-08-19T03:19:58.083Z,19.80
2022-08-19T03:21:01.325Z,19.90
2022-08-19T03:22:05.093Z,19.80
2022-08-19T03:23:08.490Z,19.90
2022-08-19T03:24:10.767Z,19.90
2022-08-19T03:25:13.981Z,19.80
2022-08-19T03:26:17.197Z,19.80
2022-08-19T03:27:21.666Z,19.90
2022-08-19T03:28:24.149Z,19.80
2022-08-19T03:29:30.788Z,19.90
2022-08-19T03:30:33.518Z,19.80
2022-08-19T03:31:43.318Z,19.80
2022-08-19T03:32:48.200Z,19.90
2022-08-19T03:33:56.674Z,19.90
2022-08-19T03:34:59.518Z,19.90
2022-08-19T03:36:08.649Z,19.80
2022-08-19T03:37:13.339Z,19.80
2022-08-19T03:38:16.733Z,19.80
2022-08-19T03:39:19.727Z,19.90
2022-08-19T03:40:22.879Z,19.90
2022-08-19T03:41:27.578Z,19.90
2022-08-19T03:42:49.643Z,19.90
2022-08-19T03:43:54.366Z,19.90
2022-08-19T03:44:59.438Z,19.80
2022-08-19T03:46:03.516Z,19.80
2022-08-19T03:47:07.211Z,19.80
2022-08-19T03:48:09.512Z,19.90
2022-08-19T03:49:14.275Z,19.90
2022-08-19T03:50:18.826Z,19.90
2022-08-19T03:51:31.017Z,19.80
2022-08-19T03:52:34.303Z,19.80
2022-08-19T03:53:36.710Z,19.90
2022-08-19T03:54:40.254Z,19.90
2022-08-19T03:55:42.758Z,19.90
2022-08-19T03:56:47.710Z,19.90
2022-08-19T03:57:51.034Z,19.90
2022-08-19T03:58:54.905Z,19.90
2022-08-19T03:59:57.014Z,19.90
2022-08-19T04:01:18.674Z,19.90
2022-08-19T04:02:21.500Z,20.00
2022-08-19T04:03:25.196Z,19.90
2022-08-19T04:04:29.304Z,19.90
2022-08-19T04:05:32.703Z,19.90
2022-08-19T04:06:38.812Z,19.90
2022-08-19T04:07:42.945Z,19.90
2022-08-19T04:08:47.010Z,19.90
2022-08-19T04:09:50.265Z,19.90
2022-08-19T04:10:52.556Z,19.90
2022-08-19T04:11:58.010Z,19.90
2022-08-19T04:13:01.519Z,19.90
2022-08-19T04:14:05.380Z,19.90
2022-08-19T04:15:09.835Z,19.90
2022-08-19T04:16:12.642Z,19.90
2022-08-19T04:17:16.327Z,19.90
2022-08-19T04:18:18.749Z,19.90
2022-08-19T04:19:22.839Z,19.90
2022-08-19T04:20:24.994Z,19.90
2022-08-19T04:21:30.102Z,19.90
2022-08-19T04:22:32.326Z,19.90
2022-08-19T04:23:37.132Z,19.90
2022-08-19T04:24:47.757Z,19.90
2022-08-19T04:25:50.775Z,19.90
2022-08-19T04:26:54.007Z,20.00
2022-08-19T04:27:56.278Z,19.90
2022-08-19T04:29:01.314Z,20.00
2022-08-19T04:30:04.093Z,20.00
2022-08-19T04:31:09.036Z,20.00
2022-08-19T04:32:12.046Z,20.00
2022-08-19T04:33:16.336Z,20.10
2022-08-19T04:34:24.294Z,20.10
2022-08-19T04:35:26.874Z,20.00
2022-08-19T04:36:33.221Z,20.10
2022-08-19T04:37:35.884Z,20.10
2022-08-19T04:38:39.293Z,20.10
2022-08-19T04:40:02.494Z,20.10
2022-08-19T04:41:23.529Z,20.10
2022-08-19T04:42:40.859Z,20.10
2022-08-19T04:43:46.043Z,20.10
2022-08-19T04:44:49.664Z,20.10
2022-08-19T04:45:56.886Z,20.10
2022-08-19T04:47:11.135Z,20.10
2022-08-19T04:48:26.138Z,20.20
2022-08-19T04:49:31.008Z,20.20
2022-08-19T04:50:34.599Z,20.20
2022-08-19T04:51:42.052Z,20.20
2022-08-19T04:52:44.248Z,20.20
2022-08-19T04:53:47.567Z,20.30
2022-08-19T04:54:49.900Z,20.30
2022-08-19T04:55:53.488Z,20.30
2022-08-19T04:56:57.203Z,20.30
2022-08-19T04:58:00.866Z,20.30
2022-08-19T04:59:04.559Z,20.30
2022-08-19T05:00:11.977Z,20.30
2022-08-19T05:01:15.634Z,20.40
2022-08-19T05:02:19.352Z,20.40
2022-08-19T05:03:22.502Z,20.40
2022-08-19T05:04:25.691Z,20.40
2022-08-19T05:05:28.320Z,20.40
2022-08-19T05:06:33.785Z,20.40
2022-08-19T05:07:36.665Z,20.50
2022-08-19T05:08:44.119Z,20.40
2022-08-19T05:09:57.053Z,20.50
2022-08-19T05:11:02.309Z,20.50
2022-08-19T05:12:06.930Z,20.50
2022-08-19T05:13:11.835Z,20.50
2022-08-19T05:14:14.050Z,20.50
2022-08-19T05:15:19.864Z,20.50
2022-08-19T05:16:24.522Z,20.50
2022-08-19T05:17:31.244Z,20.50
2022-08-19T05:18:54.054Z,20.50
2022-08-19T05:20:14.755Z,20.50
2022-08-19T05:21:38.364Z,20.50
2022-08-19T05:22:42.451Z,20.50
2022-08-19T05:23:45.770Z,20.50
2022-08-19T05:25:11.300Z,20.50
2022-08-19T05:26:12.166Z,20.50
2022-08-19T05:27:14.638Z,20.60
2022-08-19T05:28:17.880Z,20.60
2022-08-19T05:29:22.386Z,20.60
2022-08-19T05:30:46.017Z,20.60
2022-08-19T05:31:50.404Z,20.60
2022-08-19T05:32:54.053Z,20.60
2022-08-19T05:33:59.260Z,20.60
2022-08-19T05:35:02.984Z,20.60
2022-08-19T05:36:05.654Z,20.60
2022-08-19T05:37:09.348Z,20.70
2022-08-19T05:38:12.410Z,20.70
2022-08-19T05:39:18.082Z,20.80
2022-08-19T05:40:20.218Z,20.80
2022-08-19T05:41:31.503Z,20.80
2022-08-19T05:42:34.722Z,20.80
2022-08-19T05:43:38.074Z,20.90
2022-08-19T05:44:45.037Z,20.90
2022-08-19T05:45:48.574Z,20.90
2022-08-19T05:46:53.660Z,21.00
2022-08-19T05:47:56.330Z,21.00
2022-08-19T05:48:59.450Z,21.00
2022-08-19T05:50:04.965Z,21.10
2022-08-19T05:51:09.408Z,21.10
2022-08-19T05:52:16.416Z,21.10
2022-08-19T05:53:20.842Z,21.10
2022-08-19T05:54:25.662Z,21.10
2022-08-19T05:55:28.019Z,21.10
2022-08-19T05:56:32.436Z,21.10
2022-08-19T05:57:34.578Z,21.10
2022-08-19T05:58:38.282Z,21.10
2022-08-19T05:59:41.564Z,21.10
2022-08-19T06:00:44.839Z,21.10
2022-08-19T06:01:52.243Z,21.10
2022-08-19T06:02:55.661Z,21.10
2022-08-19T06:03:59.181Z,21.10
2022-08-19T06:05:02.502Z,21.20
2022-08-19T06:06:06.450Z,21.20
2022-08-19T06:07:12.222Z,21.20
2022-08-19T06:08:18.581Z,21.20
2022-08-19T06:09:21.686Z,21.20
2022-08-19T06:10:25.080Z,21.20
2022-08-19T06:11:34.448Z,21.20
2022-08-19T06:12:37.897Z,21.30
2022-08-19T06:13:40.221Z,21.30
2022-08-19T06:14:43.646Z,21.30
2022-08-19T06:15:49.658Z,21.30
2022-08-19T06:16:55.167Z,21.30
2022-08-19T06:17:58.155Z,21.30
2022-08-19T06:19:02.030Z,21.30
2022-08-19T06:20:06.267Z,21.30
2022-08-19T06:21:08.438Z,21.30
2022-08-19T06:22:14.194Z,21.40
2022-08-19T06:23:17.127Z,21.40
2022-08-19T06:24:24.496Z,21.40
2022-08-19T06:25:30.382Z,21.40
2022-08-19T06:26:33.669Z,21.40
2022-08-19T06:27:42.014Z,21.50
2022-08-19T06:28:51.620Z,21.50
2022-08-19T06:29:55.107Z,21.50
2022-08-19T06:30:57.623Z,21.50
2022-08-19T06:32:04.691Z,21.50
2022-08-19T06:33:07.415Z,21.50
2022-08-19T06:34:11.447Z,21.50
2022-08-19T06:35:15.576Z,21.50
2022-08-19T06:36:21.146Z,21.60
2022-08-19T06:37:28.209Z,21.60
2022-08-19T06:38:30.208Z,21.60
2022-08-19T06:39:36.045Z,21.60
2022-08-19T06:40:39.333Z,21.70
2022-08-19T06:41:50.631Z,21.70
2022-08-19T06:42:55.513Z,21.70
2022-08-19T06:43:58.405Z,21.70
2022-08-19T06:45:09.209Z,21.70
2022-08-19T06:46:14.715Z,21.70
2022-08-19T06:47:23.439Z,21.70
2022-08-19T06:48:27.417Z,21.70
2022-08-19T06:49:32.622Z,21.70
2022-08-19T06:50:34.917Z,21.70
2022-08-19T06:51:42.559Z,21.70
2022-08-19T06:52:45.994Z,21.70
2022-08-19T06:55:06.879Z,21.70
2022-08-19T06:56:10.603Z,21.70
2022-08-19T06:57:20.579Z,21.70
2022-08-19T06:58:24.003Z,21.70
2022-08-19T06:59:30.566Z,21.70
2022-08-19T07:00:33.382Z,21.70
2022-08-19T07:01:42.315Z,21.60
2022-08-19T07:02:52.451Z,21.60
2022-08-19T07:04:03.461Z,21.60
2022-08-19T07:05:09.052Z,21.60
2022-08-19T07:06:41.250Z,21.60
2022-08-19T07:07:39.494Z,21.60
2022-08-19T07:08:47.797Z,21.60
2022-08-19T07:09:59.102Z,21.60
2022-08-19T07:11:03.938Z,21.60
2022-08-19T07:12:16.326Z,21.60
2022-08-19T07:13:18.789Z,21.60
2022-08-19T07:17:11.489Z,21.60
2022-08-19T07:18:16.032Z,21.70
2022-08-19T07:19:29.873Z,21.70
2022-08-19T07:20:36.481Z,21.70
2022-08-19T07:21:46.165Z,21.60
2022-08-19T07:22:52.588Z,21.60
2022-08-19T07:24:04.050Z,21.60
2022-08-19T07:25:16.518Z,21.60
2022-08-19T07:26:27.849Z,21.70
2022-08-19T07:27:33.877Z,21.70
2022-08-19T07:28:46.126Z,21.70
2022-08-19T07:29:59.730Z,21.70
2022-08-19T07:31:06.507Z,21.70
2022-08-19T07:32:17.767Z,21.80
2022-08-19T07:33:24.412Z,21.80
2022-08-19T07:34:35.646Z,21.90
2022-08-19T07:35:41.225Z,21.90
2022-08-19T07:36:45.335Z,21.90
2022-08-19T07:37:51.373Z,21.90
2022-08-19T07:38:57.632Z,21.90
2022-08-19T07:40:08.681Z,21.90
2022-08-19T07:41:28.731Z,22.00
2022-08-19T07:42:40.046Z,22.00
2022-08-19T07:43:44.498Z,22.00
2022-08-19T07:44:51.782Z,22.00
2022-08-19T07:45:57.620Z,22.10
2022-08-19T07:47:01.685Z,22.10
2022-08-19T07:48:05.829Z,22.10
2022-08-19T07:49:18.473Z,22.20
2022-08-19T07:50:26.907Z,22.20
2022-08-19T07:51:36.533Z,22.20
2022-08-19T07:52:48.897Z,22.20
2022-08-19T07:53:52.442Z,22.30
2022-08-19T07:54:56.450Z,22.30
2022-08-19T07:56:05.199Z,22.30
2022-08-19T07:57:13.516Z,22.40
2022-08-19T07:58:20.040Z,22.40
2022-08-19T07:59:24.179Z,22.50
2022-08-19T08:00:29.778Z,22.40
2022-08-19T08:01:41.824Z,22.50
2022-08-19T08:02:52.095Z,22.60
2022-08-19T08:04:21.179Z,22.70
2022-08-19T08:05:46.095Z,22.70
2022-08-19T08:07:16.047Z,22.70
2022-08-19T08:08:44.318Z,22.80
2022-08-19T08:09:57.645Z,22.70
2022-08-19T08:11:00.586Z,22.80
2022-08-19T08:12:33.091Z,22.90
2022-08-19T08:13:36.395Z,23.00
2022-08-19T08:14:48.395Z,23.10
2022-08-19T08:15:52.986Z,23.20
2022-08-19T08:16:58.431Z,23.20
2022-08-19T08:18:03.652Z,23.30
2022-08-19T08:19:20.239Z,23.30
2022-08-19T08:20:45.443Z,23.40
2022-08-19T08:21:48.583Z,23.40
2022-08-19T08:23:23.536Z,23.60
2022-08-19T08:24:28.922Z,23.70
2022-08-19T08:25:34.368Z,23.80
2022-08-19T08:26:46.696Z,24.10
2022-08-19T08:27:53.857Z,24.30
2022-08-19T08:29:00.191Z,24.40
2022-08-19T08:30:03.990Z,24.50
2022-08-19T08:31:11.574Z,24.70
2022-08-19T08:32:20.563Z,24.80
2022-08-19T08:33:38.612Z,24.70
2022-08-19T08:34:44.210Z,24.70
2022-08-19T08:35:53.862Z,24.70
2022-08-19T08:36:57.086Z,24.70
2022-08-19T08:38:03.668Z,24.70
2022-08-19T08:39:06.627Z,24.70
2022-08-19T08:40:23.878Z,24.60
2022-08-19T08:41:48.458Z,24.60
2022-08-19T08:44:08.200Z,24.50
2022-08-19T08:45:20.532Z,24.50
2022-08-19T08:46:33.090Z,24.60
2022-08-19T08:47:42.245Z,24.60
2022-08-19T08:48:52.799Z,24.50
2022-08-19T08:50:00.943Z,24.50
2022-08-19T08:51:13.817Z,24.60
2022-08-19T08:52:32.018Z,24.50
2022-08-19T08:53:46.629Z,24.60
2022-08-19T08:54:57.207Z,24.60
2022-08-19T08:56:03.444Z,24.50
2022-08-19T08:57:21.533Z,24.50
2022-08-19T08:58:34.342Z,24.40
2022-08-19T08:59:45.363Z,24.50
2022-08-19T09:00:54.808Z,24.40
2022-08-19T09:02:05.612Z,24.50
2022-08-19T09:03:25.516Z,24.60
2022-08-19T09:04:36.458Z,24.60
2022-08-19T09:05:50.877Z,24.70
2022-08-19T09:07:34.531Z,24.80
2022-08-19T09:08:56.607Z,24.80
2022-08-19T09:10:14.361Z,24.90
2022-08-19T09:11:42.860Z,25.10
2022-08-19T09:13:00.111Z,25.10
2022-08-19T09:14:35.043Z,25.10
2022-08-19T09:15:51.579Z,25.10
2022-08-19T09:16:59.490Z,25.20
2022-08-19T09:18:19.057Z,25.30
2022-08-19T09:19:29.495Z,25.40
2022-08-19T09:20:33.679Z,25.30
2022-08-19T09:21:41.651Z,25.20
2022-08-19T09:22:47.584Z,25.10
2022-08-19T09:23:50.982Z,25.10
2022-08-19T09:24:54.960Z,25.00
2022-08-19T09:25:57.502Z,24.90
2022-08-19T09:27:04.522Z,24.90
2022-08-19T09:28:22.541Z,24.80
2022-08-19T09:29:30.852Z,24.70
2022-08-19T09:30:44.025Z,24.70
2022-08-19T09:31:46.226Z,24.60
2022-08-19T09:32:52.854Z,24.60
2022-08-19T09:33:58.181Z,24.50
2022-08-19T09:35:02.663Z,24.50
2022-08-19T09:36:09.584Z,24.50
2022-08-19T09:37:13.166Z,24.50
2022-08-19T09:38:18.528Z,24.50
2022-08-19T09:39:21.622Z,24.50
2022-08-19T09:40:24.766Z,24.60
2022-08-19T09:41:28.934Z,24.60
2022-08-19T09:42:35.191Z,24.50
2022-08-19T09:43:44.631Z,24.40
2022-08-19T09:44:51.775Z,24.30
2022-08-19T09:45:54.833Z,24.30
2022-08-19T09:46:58.401Z,24.20
2022-08-19T09:48:01.517Z,24.20
2022-08-19T09:49:06.888Z,24.10
2022-08-19T09:50:16.630Z,24.00
2022-08-19T09:51:22.837Z,24.00
2022-08-19T09:52:25.794Z,23.90
2022-08-19T09:53:40.171Z,24.00
2022-08-19T09:54:44.527Z,23.90
2022-08-19T09:55:57.401Z,24.00
2022-08-19T09:57:04.712Z,24.10
2022-08-19T09:58:11.747Z,24.10
2022-08-19T09:59:15.238Z,24.10
2022-08-19T10:00:18.020Z,24.00
2022-08-19T10:01:25.021Z,24.00
2022-08-19T10:02:29.049Z,23.90
2022-08-19T10:03:36.568Z,23.90
2022-08-19T10:04:57.625Z,23.90
2022-08-19T10:06:04.406Z,23.80
2022-08-19T10:07:11.163Z,23.80
2022-08-19T10:08:14.691Z,23.90
2022-08-19T10:09:33.579Z,24.00
2022-08-19T10:10:37.026Z,24.10
2022-08-19T10:11:52.268Z,24.10
2022-08-19T10:12:57.255Z,24.20
2022-08-19T10:14:01.690Z,24.20
2022-08-19T10:15:07.282Z,24.20
2022-08-19T10:16:20.447Z,24.20
2022-08-19T10:17:26.762Z,24.20
2022-08-19T10:18:31.202Z,24.20
2022-08-19T10:19:36.945Z,24.20
2022-08-19T10:20:41.417Z,24.20
2022-08-19T10:21:46.786Z,24.20
2022-08-19T10:22:55.625Z,24.30
2022-08-19T10:24:04.779Z,24.30
2022-08-19T10:25:09.952Z,24.30
2022-08-19T10:26:14.654Z,24.50
2022-08-19T10:27:19.368Z,24.60
2022-08-19T10:28:24.062Z,24.60
2022-08-19T10:29:31.959Z,24.70
2022-08-19T10:30:36.688Z,24.80
2022-08-19T10:31:59.847Z,24.80
2022-08-19T10:33:08.448Z,24.70
2022-08-19T10:34:27.161Z,24.70
2022-08-19T10:35:32.052Z,24.70
2022-08-19T10:37:00.894Z,24.80
2022-08-19T10:38:04.827Z,24.70
2022-08-19T10:39:12.584Z,24.70
2022-08-19T10:40:16.960Z,24.60
2022-08-19T10:41:24.053Z,24.60
2022-08-19T10:42:26.596Z,24.60
2022-08-19T10:43:33.523Z,24.70
2022-08-19T10:44:36.569Z,24.80
2022-08-19T10:45:52.305Z,24.80
2022-08-19T10:46:56.184Z,24.80
2022-08-19T10:48:00.461Z,24.90
2022-08-19T10:49:07.362Z,25.00
2022-08-19T10:50:30.073Z,25.10
2022-08-19T10:51:52.197Z,25.00
2022-08-19T10:52:58.794Z,25.00
2022-08-19T10:54:02.439Z,25.00
2022-08-19T10:55:31.927Z,25.00
2022-08-19T10:56:53.696Z,25.00
2022-08-19T10:58:02.590Z,24.90
2022-08-19T10:59:06.798Z,24.90
2022-08-19T11:00:10.848Z,25.00
2022-08-19T11:01:14.282Z,25.00
2022-08-19T11:02:20.453Z,25.00
2022-08-19T11:03:24.864Z,25.00
2022-08-19T11:04:29.507Z,25.00
2022-08-19T11:05:36.467Z,24.80
2022-08-19T11:06:48.542Z,24.80
2022-08-19T11:07:53.012Z,24.70
2022-08-19T11:08:57.371Z,24.70
2022-08-19T11:10:00.251Z,24.60
2022-08-19T11:11:06.698Z,24.60
2022-08-19T11:12:11.732Z,24.50
2022-08-19T11:13:15.148Z,24.30
2022-08-19T11:14:21.490Z,24.30
2022-08-19T11:15:25.343Z,24.20
2022-08-19T11:16:31.105Z,24.10
2022-08-19T11:17:34.020Z,24.10
2022-08-19T11:18:41.668Z,24.10
2022-08-19T11:19:45.166Z,24.10
2022-08-19T11:20:47.584Z,24.10
2022-08-19T11:21:52.176Z,24.10
2022-08-19T11:22:59.160Z,24.10
2022-08-19T11:24:05.515Z,24.10
2022-08-19T11:25:10.443Z,24.10
2022-08-19T11:26:12.901Z,24.10
2022-08-19T11:27:18.019Z,24.10
2022-08-19T11:28:24.780Z,24.10
2022-08-19T11:29:29.948Z,24.10
2022-08-19T11:30:32.986Z,24.10
2022-08-19T11:31:38.205Z,24.10
2022-08-19T11:32:45.930Z,24.10
2022-08-19T11:33:52.163Z,24.10
2022-08-19T11:34:55.659Z,24.10
2022-08-19T11:35:59.451Z,24.10
2022-08-19T11:37:04.680Z,24.10
2022-08-19T11:38:09.785Z,24.00
2022-08-19T11:39:15.841Z,24.00
2022-08-19T11:40:18.881Z,24.00
2022-08-19T11:41:25.031Z,23.90
2022-08-19T11:42:50.458Z,23.90
2022-08-19T11:43:56.118Z,24.00
2022-08-19T11:44:59.284Z,23.90
2022-08-19T11:46:04.369Z,23.90
2022-08-19T11:47:08.729Z,23.90
2022-08-19T11:48:11.464Z,24.00
2022-08-19T11:49:15.528Z,24.00
2022-08-19T11:50:18.323Z,23.90
2022-08-19T11:51:25.781Z,23.90
2022-08-19T11:52:27.783Z,23.90
2022-08-19T11:53:33.110Z,23.90
2022-08-19T11:54:37.762Z,23.90
2022-08-19T11:55:44.018Z,23.80
2022-08-19T11:56:49.908Z,23.80
2022-08-19T11:57:54.411Z,23.90
2022-08-19T11:59:00.810Z,23.90
2022-08-19T12:00:13.007Z,23.80
2022-08-19T12:01:17.802Z,23.90
2022-08-19T12:02:21.360Z,23.90
2022-08-19T12:03:23.788Z,23.90
2022-08-19T12:04:27.146Z,24.00
2022-08-19T12:05:29.277Z,23.90
2022-08-19T12:06:35.312Z,24.10
2022-08-19T12:07:37.543Z,24.10
2022-08-19T12:08:40.882Z,24.10
2022-08-19T12:09:48.626Z,24.10
2022-08-19T12:10:50.849Z,24.10
2022-08-19T12:11:54.465Z,24.10
2022-08-19T12:12:59.421Z,24.10
2022-08-19T12:14:02.999Z,24.20
2022-08-19T12:15:07.717Z,24.20
2022-08-19T12:16:13.036Z,24.20
2022-08-19T12:17:16.465Z,24.20
2022-08-19T12:18:21.327Z,24.20
2022-08-19T12:19:25.693Z,24.20
2022-08-19T12:20:30.613Z,24.20
2022-08-19T12:21:36.858Z,24.20
2022-08-19T12:23:09.641Z,24.10
2022-08-19T12:24:29.025Z,24.00
2022-08-19T12:25:37.149Z,24.00
2022-08-19T12:26:52.935Z,24.00
2022-08-19T12:28:09.801Z,23.90
2022-08-19T12:29:12.629Z,23.90
2022-08-19T12:30:20.965Z,23.90
2022-08-19T12:31:26.732Z,23.90
2022-08-19T12:32:35.795Z,23.90
2022-08-19T12:33:42.525Z,23.90
2022-08-19T12:34:49.058Z,23.90
2022-08-19T12:36:03.392Z,24.00
2022-08-19T12:37:08.147Z,23.90
2022-08-19T12:38:10.877Z,24.00
2022-08-19T12:39:15.716Z,24.10
2022-08-19T12:40:23.505Z,24.10
2022-08-19T12:41:32.418Z,24.10
2022-08-19T12:42:35.936Z,24.10
2022-08-19T12:44:00.579Z,24.10
2022-08-19T12:45:20.146Z,24.10
2022-08-19T12:46:43.562Z,24.20
2022-08-19T12:47:56.595Z,24.20
2022-08-19T12:49:35.914Z,24.30
2022-08-19T12:50:42.739Z,24.30
2022-08-19T12:51:45.781Z,24.40
2022-08-19T12:52:53.403Z,24.40
2022-08-19T12:53:57.756Z,24.50
2022-08-19T12:55:03.790Z,24.60
2022-08-19T12:56:12.876Z,24.60
2022-08-19T12:57:18.972Z,24.50
2022-08-19T12:58:35.644Z,24.50
2022-08-19T12:59:45.422Z,24.50
2022-08-19T13:00:51.563Z,24.50
2022-08-19T13:01:54.634Z,24.50
2022-08-19T13:03:01.735Z,24.60
2022-08-19T13:04:13.151Z,24.70
2022-08-19T13:05:22.872Z,24.60
2022-08-19T13:06:27.486Z,24.60
2022-08-19T13:07:33.338Z,24.60
2022-08-19T13:08:37.199Z,24.60
2022-08-19T13:09:42.067Z,24.70
2022-08-19T13:10:45.258Z,24.70
2022-08-19T13:11:47.552Z,24.70
2022-08-19T13:12:52.793Z,24.70
2022-08-19T13:13:56.350Z,24.70
2022-08-19T13:15:02.418Z,24.80
2022-08-19T13:16:05.832Z,24.80
2022-08-19T13:17:09.570Z,24.90
2022-08-19T13:18:16.053Z,24.80
2022-08-19T13:19:24.225Z,24.80
2022-08-19T13:20:26.975Z,24.80
2022-08-19T13:21:31.947Z,24.80
2022-08-19T13:22:34.597Z,24.80
2022-08-19T13:23:38.281Z,24.90
2022-08-19T13:24:47.709Z,25.00
2022-08-19T13:25:58.098Z,24.90
2022-08-19T13:27:01.625Z,24.90
2022-08-19T13:28:04.553Z,25.00
2022-08-19T13:29:25.805Z,25.10
2022-08-19T13:30:48.364Z,25.10
2022-08-19T13:32:09.633Z,25.20
2022-08-19T13:33:16.605Z,25.20
2022-08-19T13:34:22.026Z,25.20
2022-08-19T13:35:25.354Z,25.20
2022-08-19T13:36:27.686Z,25.20
2022-08-19T13:37:43.443Z,25.20
2022-08-19T13:38:45.841Z,25.20
2022-08-19T13:39:49.695Z,25.30
2022-08-19T13:40:56.228Z,25.30
2022-08-19T13:41:58.916Z,25.30
2022-08-19T13:43:04.074Z,25.30
2022-08-19T13:44:25.890Z,25.30
2022-08-19T13:45:34.453Z,25.40
2022-08-19T13:46:37.862Z,25.30
2022-08-19T13:47:44.171Z,25.40
2022-08-19T13:48:47.845Z,25.30
2022-08-19T13:49:51.025Z,25.30
2022-08-19T13:50:55.084Z,25.30
2022-08-19T13:51:58.753Z,25.30
2022-08-19T13:53:03.195Z,25.30
2022-08-19T13:54:05.690Z,25.20
2022-08-19T13:55:10.410Z,25.20
2022-08-19T13:56:25.884Z,25.20
2022-08-19T13:57:28.617Z,25.10
2022-08-19T13:58:32.617Z,25.10
2022-08-19T13:59:35.867Z,25.10
2022-08-19T14:00:43.905Z,25.10
2022-08-19T14:01:47.130Z,25.00
2022-08-19T14:02:52.909Z,25.10
2022-08-19T14:03:57.822Z,25.00
2022-08-19T14:05:00.309Z,25.00
2022-08-19T14:06:03.863Z,25.00
2022-08-19T14:07:07.304Z,25.00
2022-08-19T14:08:13.083Z,25.00
2022-08-19T14:09:16.467Z,25.00
2022-08-19T14:10:19.859Z,25.00
2022-08-19T14:11:24.592Z,25.00
2022-08-19T14:12:28.699Z,24.90
2022-08-19T14:13:34.646Z,24.80
2022-08-19T14:14:41.164Z,24.90
2022-08-19T14:15:44.839Z,24.80
2022-08-19T14:16:47.924Z,24.70
2022-08-19T14:17:51.077Z,24.70
2022-08-19T14:18:54.507Z,24.70
2022-08-19T14:19:58.021Z,24.70
2022-08-19T14:21:01.073Z,24.70
2022-08-19T14:22:22.163Z,24.60
2022-08-19T14:24:20.632Z,24.80
2022-08-19T14:36:13.033Z,24.80
2022-08-19T14:59:23.242Z,24.60